Time;durP1;ratioP1;P1;durP2;ratioP2;P2;SDS_P1;SDS_P2;PMS_P1;PMS_P2;Temp;Humidity;BMP_temperature;BMP_pressure;BME280_temperature;BME280_humidity;BME280_pressure;Samples;Min_cycle;Max_cycle;Signal;HPM_P1;HPM_P2
2022/07/02 00:01:17;;;;;;;7.00;4.90;;;;;;;21.25;61.10;100091.17;1697439;84;21005;-71
2022/07/02 00:03:51;;;;;;;5.72;5.22;;;;;;;21.22;61.28;100100.01;1705188;84;21970;-68
2022/07/02 00:06:22;;;;;;;7.70;5.00;;;;;;;21.18;61.46;100091.37;1706658;83;21014;-68
2022/07/02 00:08:48;;;;;;;6.05;4.95;;;;;;;21.15;61.53;100094.73;1706082;83;21033;-69
2022/07/02 00:11:15;;;;;;;6.15;4.80;;;;;;;21.14;61.42;100093.92;1705021;83;21041;-73
2022/07/02 00:13:42;;;;;;;5.72;4.60;;;;;;;21.14;61.48;100093.11;1683442;84;21084;-70
2022/07/02 00:16:11;;;;;;;4.80;4.37;;;;;;;21.14;61.52;100095.84;1717625;82;21139;-70
2022/07/02 00:18:37;;;;;;;4.85;4.45;;;;;;;21.11;61.75;100101.88;1693885;82;21096;-69
2022/07/02 00:21:04;;;;;;;5.80;4.67;;;;;;;21.05;61.71;100098.48;1655135;85;21232;-66
2022/07/02 00:23:31;;;;;;;8.13;4.78;;;;;;;20.98;62.32;100102.74;1696280;84;21083;-67
2022/07/02 00:26:03;;;;;;;5.15;4.58;;;;;;;20.85;62.79;100100.31;1669354;85;21593;-67
2022/07/02 00:28:31;;;;;;;4.97;4.58;;;;;;;20.75;63.27;100099.98;1678366;84;21054;-69
2022/07/02 00:30:59;;;;;;;5.97;5.37;;;;;;;20.61;63.59;100106.03;1721524;82;21524;-69
2022/07/02 00:33:26;;;;;;;5.20;4.70;;;;;;;20.61;63.59;100106.03;1697521;84;21020;-72
2022/07/02 00:35:53;;;;;;;5.15;4.50;;;;;;;20.54;64.31;100113.81;1697063;84;21530;-69
2022/07/02 00:38:20;;;;;;;5.53;5.03;;;;;;;20.44;64.95;100112.11;1722948;82;21075;-67
2022/07/02 00:40:47;;;;;;;4.50;3.62;;;;;;;20.44;64.95;100112.11;1692320;84;21258;-67
2022/07/02 00:43:15;;;;;;;7.37;5.65;;;;;;;20.34;65.21;100116.41;1721694;82;21001;-69
2022/07/02 00:45:41;;;;;;;6.58;4.67;;;;;;;20.19;66.01;100121.35;1690755;84;20981;-71
2022/07/02 00:48:08;;;;;;;5.15;4.67;;;;;;;20.19;66.01;100121.35;1689535;85;21029;-68
2022/07/02 00:50:35;;;;;;;9.63;5.35;;;;;;;20.14;66.33;100120.89;1689429;84;21469;-70
2022/07/02 00:53:02;;;;;;;5.37;4.87;;;;;;;20.10;66.63;100117.67;1689415;84;21130;-69
2022/07/02 00:55:29;;;;;;;7.40;5.37;;;;;;;20.09;66.38;100124.27;1676523;84;21050;-69
2022/07/02 00:57:57;;;;;;;13.45;5.75;;;;;;;20.02;66.65;100127.39;1669352;84;21040;-67
2022/07/02 01:00:24;;;;;;;5.92;5.33;;;;;;;19.98;66.81;100131.29;1678560;84;21476;-68
2022/07/02 01:02:51;;;;;;;6.35;5.22;;;;;;;19.94;67.02;100131.64;1672342;84;21082;-71
2022/07/02 01:05:19;;;;;;;6.12;5.58;;;;;;;19.96;67.00;100126.67;1684402;84;21052;-72
2022/07/02 01:10:19;;;;;;;10.13;5.23;;;;;;;19.90;67.41;100125.72;1665018;84;21561;-70
2022/07/02 01:12:50;;;;;;;6.15;4.12;;;;;;;19.89;67.34;100131.73;1677536;85;20997;-70
2022/07/02 01:15:17;;;;;;;4.65;4.25;;;;;;;19.90;67.36;100127.87;1677783;84;21933;-70
2022/07/02 01:17:44;;;;;;;7.35;5.28;;;;;;;19.89;67.32;100131.73;1662779;85;22532;-70
2022/07/02 01:20:12;;;;;;;6.33;4.20;;;;;;;19.85;67.57;100131.27;1679136;85;20964;-68
2022/07/02 01:22:44;;;;;;;5.40;4.85;;;;;;;19.80;67.65;100140.36;1689533;84;21112;-68
2022/07/02 01:25:09;;;;;;;6.40;4.58;;;;;;;19.76;67.77;100142.63;1689374;84;21060;-70
2022/07/02 01:27:36;;;;;;;5.42;4.97;;;;;;;19.80;67.76;100150.47;1689321;85;21051;-70
2022/07/02 01:30:05;;;;;;;9.23;5.05;;;;;;;19.75;67.86;100150.00;1689660;84;21253;-72
2022/07/02 01:32:33;;;;;;;7.25;5.42;;;;;;;19.62;68.37;100151.30;1688417;84;20942;-71
2022/07/02 01:35:05;;;;;;;7.30;5.35;;;;;;;19.54;68.51;100152.25;1665271;85;21024;-70
2022/07/02 01:37:32;;;;;;;7.55;4.87;;;;;;;19.44;68.86;100156.50;1635118;86;21016;-71
2022/07/02 01:39:59;;;;;;;7.17;6.25;;;;;;;19.42;69.21;100161.98;1689544;84;21072;-70
2022/07/02 01:42:27;;;;;;;9.53;4.87;;;;;;;19.38;69.29;100162.29;1688208;85;21281;-68
2022/07/02 01:44:55;;;;;;;14.05;6.17;;;;;;;19.31;69.51;100165.41;1675716;83;21060;-66
2022/07/02 01:47:22;;;;;;;5.85;5.03;;;;;;;19.22;69.91;100161.73;1674074;85;21530;-65
2022/07/02 01:49:49;;;;;;;6.47;5.55;;;;;;;19.16;69.90;100163.72;1685215;84;21021;-67
2022/07/02 01:52:16;;;;;;;7.95;5.78;;;;;;;19.16;70.07;100168.36;1698912;84;21489;-68
2022/07/02 01:54:44;;;;;;;5.75;5.25;;;;;;;19.13;70.39;100174.41;1679809;83;21280;-66
2022/07/02 01:57:12;;;;;;;5.60;5.03;;;;;;;19.06;70.82;100169.86;1673201;83;21037;-66
2022/07/02 01:59:40;;;;;;;6.42;5.35;;;;;;;18.99;71.17;100172.16;1678743;83;20977;-67
2022/07/02 02:02:06;;;;;;;5.35;4.85;;;;;;;19.00;70.91;100168.30;1669478;85;21572;-67
2022/07/02 02:04:33;;;;;;;4.83;4.42;;;;;;;19.01;70.68;100164.48;1682778;84;21091;-67
2022/07/02 02:07:01;;;;;;;8.90;4.62;;;;;;;19.01;70.56;100163.93;1697738;83;21315;-68
2022/07/02 02:09:28;;;;;;;6.85;5.15;;;;;;;19.05;70.46;100170.95;1686375;84;20961;-67
2022/07/02 02:11:55;;;;;;;7.53;4.75;;;;;;;19.00;70.87;100168.30;1699151;84;21048;-67
2022/07/02 02:14:22;;;;;;;4.97;4.35;;;;;;;18.96;70.73;100166.72;1693179;84;21007;-67
2022/07/02 02:16:50;;;;;;;9.08;4.78;;;;;;;18.97;70.65;100175.17;1660547;84;21104;-68
2022/07/02 02:19:18;;;;;;;8.08;4.53;;;;;;;18.94;71.00;100175.77;1691808;84;21451;-68
2022/07/02 02:21:45;;;;;;;6.30;4.45;;;;;;;18.92;70.79;100174.42;1698120;83;20952;-67
2022/07/02 02:24:13;;;;;;;9.20;4.80;;;;;;;18.91;70.89;100180.97;1680702;84;21011;-67
2022/07/02 02:26:39;;;;;;;9.63;5.30;;;;;;;18.90;70.81;100182.06;1695145;84;20997;-66
2022/07/02 02:29:06;;;;;;;8.50;4.28;;;;;;;18.95;70.56;100187.45;1678513;84;21090;-66
2022/07/02 02:31:33;;;;;;;5.30;4.70;;;;;;;18.97;70.59;100185.26;1682285;84;21169;-67
2022/07/02 02:33:59;;;;;;;6.15;4.67;;;;;;;18.94;70.87;100189.94;1698121;84;21495;-66
2022/07/02 02:36:28;;;;;;;5.92;4.87;;;;;;;18.91;71.14;100189.96;1677575;84;21547;-68
2022/07/02 02:38:55;;;;;;;7.55;4.85;;;;;;;18.86;71.24;100196.02;1698236;84;21098;-66
2022/07/02 02:41:22;;;;;;;7.00;4.97;;;;;;;18.82;71.42;100198.53;1670746;85;21020;-66
2022/07/02 02:43:50;;;;;;;4.90;4.37;;;;;;;18.77;71.84;100200.50;1698266;84;21158;-66
2022/07/02 02:46:16;;;;;;;7.30;4.03;;;;;;;18.77;71.77;100197.23;1710351;83;21156;-68
2022/07/02 02:48:43;;;;;;;6.12;4.87;;;;;;;18.78;71.50;100193.41;1697053;84;21048;-66
2022/07/02 02:51:13;;;;;;;15.20;4.67;;;;;;;18.76;71.83;100194.78;1695657;84;21049;-66
2022/07/02 02:53:42;;;;;;;10.05;5.83;;;;;;;18.75;71.62;100209.54;1704934;84;21065;-66
2022/07/02 02:56:07;;;;;;;13.22;5.10;;;;;;;18.75;71.72;100204.09;1694001;84;21281;-66
2022/07/02 02:58:34;;;;;;;5.53;4.47;;;;;;;18.73;71.90;100214.72;1710388;83;21570;-65
2022/07/02 03:01:01;;;;;;;10.68;4.95;;;;;;;18.77;71.76;100212.77;1695840;84;20997;-66
2022/07/02 03:03:28;;;;;;;9.40;4.60;;;;;;;18.78;71.74;100223.94;1695695;84;21170;-66
2022/07/02 03:05:54;;;;;;;9.03;4.87;;;;;;;18.80;71.63;100223.11;1690411;84;21009;-66
2022/07/02 03:08:21;;;;;;;5.15;4.65;;;;;;;18.81;71.69;100225.52;1728197;82;21770;-66
2022/07/02 03:10:48;;;;;;;5.08;4.58;;;;;;;18.85;71.65;100231.22;1711724;83;20999;-67
2022/07/02 03:13:15;;;;;;;9.95;5.00;;;;;;;18.83;71.40;100221.97;1695816;84;21060;-66
2022/07/02 03:15:42;;;;;;;6.95;4.70;;;;;;;18.86;71.40;100223.28;1704983;84;21021;-67
2022/07/02 03:18:10;;;;;;;8.25;5.65;;;;;;;18.86;71.53;100225.46;1705124;83;21116;-66
2022/07/02 03:20:37;;;;;;;5.97;4.85;;;;;;;18.79;71.73;100237.28;1705567;83;21100;-67
2022/07/02 03:23:05;;;;;;;13.18;4.45;;;;;;;18.75;72.08;100238.16;1694347;83;21043;-67
2022/07/02 03:25:33;;;;;;;6.40;4.90;;;;;;;18.73;72.23;100232.98;1710561;83;21044;-66
2022/07/02 03:27:59;;;;;;;10.43;5.67;;;;;;;18.76;71.76;100236.48;1710666;83;21536;-67
2022/07/02 03:30:26;;;;;;;6.90;5.37;;;;;;;18.73;71.82;100239.25;1710193;83;21086;-67
2022/07/02 03:32:53;;;;;;;11.55;5.67;;;;;;;18.70;71.92;100237.08;1710519;83;21210;-67
2022/07/02 03:35:20;;;;;;;6.53;5.55;;;;;;;18.75;71.83;100243.06;1697521;84;21538;-66
2022/07/02 03:37:46;;;;;;;5.72;5.22;;;;;;;18.77;71.73;100246.83;1709939;83;20980;-67
2022/07/02 03:40:13;;;;;;;7.65;4.90;;;;;;;18.80;71.56;100253.87;1697313;84;21021;-66
2022/07/02 03:42:40;;;;;;;7.72;4.78;;;;;;;18.86;71.43;100259.53;1693197;83;21507;-66
2022/07/02 03:45:08;;;;;;;4.87;4.40;;;;;;;18.91;71.08;100251.30;1692644;84;21167;-67
2022/07/02 03:47:35;;;;;;;5.95;5.05;;;;;;;18.98;70.70;100244.95;1689824;82;21678;-67
2022/07/02 03:50:02;;;;;;;11.20;4.60;;;;;;;19.04;70.49;100241.61;1718806;82;21602;-66
2022/07/02 03:52:29;;;;;;;5.80;4.50;;;;;;;19.05;70.29;100248.66;1689385;84;20996;-67
2022/07/02 03:54:55;;;;;;;6.08;4.50;;;;;;;18.98;70.00;100244.14;1688045;85;21099;-66
2022/07/02 03:57:22;;;;;;;6.10;5.50;;;;;;;18.93;70.29;100246.92;1685963;83;21283;-66
2022/07/02 03:59:49;;;;;;;5.50;4.22;;;;;;;18.87;70.34;100244.81;1655614;85;21055;-66
2022/07/02 04:02:16;;;;;;;5.22;4.72;;;;;;;18.87;70.53;100243.45;1688145;85;21116;-68
2022/07/02 04:04:42;;;;;;;5.28;4.20;;;;;;;18.93;70.30;100247.73;1673344;85;21048;-66
2022/07/02 04:07:09;;;;;;;5.60;4.37;;;;;;;18.95;70.08;100243.34;1673879;85;21036;-66
2022/07/02 04:09:36;;;;;;;10.13;4.58;;;;;;;19.02;69.88;100241.89;1673507;85;21259;-67
2022/07/02 04:12:04;;;;;;;8.90;5.08;;;;;;;19.06;69.56;100245.66;1673953;85;21016;-68
2022/07/02 04:14:32;;;;;;;6.83;4.92;;;;;;;19.11;69.28;100241.50;1664423;85;21107;-66
2022/07/02 04:16:58;;;;;;;6.05;4.72;;;;;;;19.18;69.04;100242.52;1675277;85;21000;-67
2022/07/02 04:19:26;;;;;;;5.87;4.37;;;;;;;19.23;68.84;100237.55;1693493;84;21592;-66
2022/07/02 04:21:52;;;;;;;8.13;4.78;;;;;;;19.23;68.74;100238.91;1688107;84;21271;-68
2022/07/02 04:24:19;;;;;;;7.50;4.80;;;;;;;19.19;68.93;100237.30;1673676;85;21557;-66
2022/07/02 04:26:46;;;;;;;5.58;4.40;;;;;;;19.16;69.34;100232.44;1687969;84;21041;-67
2022/07/02 04:29:12;;;;;;;4.45;3.92;;;;;;;19.19;68.99;100242.75;1704151;83;20964;-67
2022/07/02 04:31:41;;;;;;;4.22;3.83;;;;;;;19.24;68.50;100248.14;1703203;84;21110;-67
2022/07/02 04:34:08;;;;;;;8.75;4.62;;;;;;;19.32;68.46;100250.23;1688083;84;21798;-64
2022/07/02 04:36:34;;;;;;;4.97;4.47;;;;;;;19.41;68.03;100258.56;1656020;85;21021;-65
2022/07/02 04:39:03;;;;;;;8.85;4.78;;;;;;;19.42;68.01;100260.20;1660214;85;20969;-67
2022/07/02 04:41:29;;;;;;;6.37;4.45;;;;;;;19.43;67.97;100265.34;1639256;85;21071;-66
2022/07/02 04:43:56;;;;;;;5.67;4.17;;;;;;;19.46;68.02;100271.63;1647377;85;21557;-67
2022/07/02 04:46:23;;;;;;;6.70;4.10;;;;;;;19.52;67.72;100270.97;1660170;85;21060;-65
2022/07/02 04:48:50;;;;;;;8.03;4.97;;;;;;;19.55;67.33;100276.67;1675342;85;21013;-66
2022/07/02 04:51:17;;;;;;;8.50;4.40;;;;;;;19.64;66.80;100278.17;1649314;85;21052;-68
2022/07/02 04:53:44;;;;;;;10.10;4.95;;;;;;;19.73;65.62;100274.22;1688113;84;21022;-66
2022/07/02 04:56:11;;;;;;;7.10;4.30;;;;;;;19.78;65.11;100274.95;1664858;85;21040;-66
2022/07/02 04:58:37;;;;;;;8.20;4.03;;;;;;;19.83;64.93;100278.98;1688086;84;22086;-66
2022/07/02 05:01:06;;;;;;;7.58;4.40;;;;;;;19.86;63.64;100278.38;1672816;85;21016;-66
2022/07/02 05:03:33;;;;;;;5.30;3.75;;;;;;;19.90;62.20;100290.31;1673892;85;21013;-65
2022/07/02 05:06:00;;;;;;;9.73;4.60;;;;;;;19.92;62.46;100285.94;1673911;85;21009;-65
2022/07/02 05:08:26;;;;;;;4.37;4.08;;;;;;;19.90;62.83;100293.63;1673879;85;21035;-66
2022/07/02 05:10:54;;;;;;;9.68;4.47;;;;;;;19.90;63.15;100300.45;1673134;85;21795;-67
2022/07/02 05:13:22;;;;;;;7.53;4.20;;;;;;;19.93;62.93;100300.67;1673801;85;21513;-66
2022/07/02 05:15:49;;;;;;;8.70;4.65;;;;;;;19.95;62.81;100305.84;1703588;83;20985;-65
2022/07/02 05:18:16;;;;;;;7.10;3.87;;;;;;;19.96;62.86;100305.52;1688152;85;21032;-66
2022/07/02 05:20:42;;;;;;;4.00;3.65;;;;;;;20.02;63.38;100311.17;1703615;82;21056;-67
2022/07/02 05:23:10;;;;;;;5.65;3.95;;;;;;;20.12;63.06;100304.73;1687791;85;21418;-67
2022/07/02 05:25:37;;;;;;;9.43;3.67;;;;;;;20.21;62.55;100307.59;1675284;85;20999;-69
2022/07/02 05:28:04;;;;;;;4.08;2.83;;;;;;;20.29;61.76;100306.90;1664643;84;21057;-67
2022/07/02 05:30:31;;;;;;;4.03;3.58;;;;;;;20.37;60.74;100309.81;1718415;82;21208;-66
2022/07/02 05:32:58;;;;;;;7.47;4.22;;;;;;;20.48;60.35;100311.79;1718423;82;21060;-67
2022/07/02 05:35:24;;;;;;;9.13;3.85;;;;;;;20.53;60.52;100311.70;1702213;82;21152;-65
2022/07/02 05:37:51;;;;;;;12.35;3.72;;;;;;;20.58;60.70;100308.88;1702345;84;21533;-67
2022/07/02 05:40:18;;;;;;;9.63;4.30;;;;;;;20.65;59.81;100304.40;1702235;83;21004;-66
2022/07/02 05:42:45;;;;;;;8.30;3.33;;;;;;;20.73;58.65;100307.23;1688762;84;21086;-64
2022/07/02 05:45:11;;;;;;;7.58;3.87;;;;;;;20.82;58.39;100306.79;1705487;82;21015;-69
2022/07/02 05:47:38;;;;;;;7.50;3.77;;;;;;;20.92;57.72;100310.44;1700467;84;21483;-66
2022/07/02 05:50:07;;;;;;;6.17;3.50;;;;;;;20.93;57.62;100310.70;1727785;82;21079;-66
2022/07/02 05:52:33;;;;;;;7.90;3.52;;;;;;;20.94;57.64;100307.67;1707649;83;21511;-66
2022/07/02 05:55:00;;;;;;;7.85;3.65;;;;;;;20.97;57.14;100304.87;1712826;82;21558;-66
2022/07/02 05:57:27;;;;;;;4.05;3.45;;;;;;;21.01;56.78;100305.33;1695818;84;21053;-67
2022/07/02 05:59:55;;;;;;;5.35;3.33;;;;;;;21.10;56.47;100311.70;1707554;83;21257;-66
2022/07/02 06:02:22;;;;;;;3.80;3.00;;;;;;;21.17;55.75;100308.05;1727709;83;21557;-64
2022/07/02 06:04:49;;;;;;;4.10;3.52;;;;;;;21.24;54.65;100310.39;1707684;83;21043;-66
2022/07/02 06:10:01;;;;;;;5.53;3.20;;;;;;;21.28;52.66;100316.86;1710586;83;21046;-66
2022/07/02 06:12:27;;;;;;;5.33;4.00;;;;;;;21.29;53.33;100329.44;1684080;83;21864;-66
2022/07/02 06:14:55;;;;;;;5.53;3.80;;;;;;;21.31;53.59;100330.74;1669146;85;20996;-66
2022/07/02 06:17:21;;;;;;;6.67;3.30;;;;;;;21.39;53.74;100332.52;1683794;83;21516;-68
2022/07/02 06:19:51;;;;;;;3.25;2.67;;;;;;;21.47;53.02;100335.90;1689386;84;21017;-66
2022/07/02 06:22:18;;;;;;;4.92;3.12;;;;;;;21.50;52.18;100336.64;1727857;82;21108;-66
2022/07/02 06:24:47;;;;;;;4.15;3.22;;;;;;;21.53;51.02;100343.70;1714275;83;21118;-67
2022/07/02 06:27:18;;;;;;;8.30;3.50;;;;;;;21.61;51.09;100347.64;1709772;83;21004;-66
2022/07/02 06:29:48;;;;;;;11.88;3.47;;;;;;;21.71;50.96;100346.86;1710028;83;21032;-69
2022/07/02 06:32:16;;;;;;;4.83;3.60;;;;;;;21.80;50.93;100342.83;1710166;83;20948;-67
2022/07/02 06:34:44;;;;;;;6.03;3.35;;;;;;;21.90;50.62;100345.34;1695887;84;20967;-64
2022/07/02 06:37:11;;;;;;;5.53;3.80;;;;;;;21.98;49.24;100336.41;1705080;84;21980;-65
2022/07/02 06:39:37;;;;;;;11.15;3.70;;;;;;;22.08;49.81;100340.84;1671262;83;20944;-68
2022/07/02 06:42:28;;;;;;;5.97;3.47;;;;;;;22.17;49.57;100338.97;1687056;84;20965;-66
2022/07/02 06:44:52;;;;;;;12.70;4.75;;;;;;;22.27;49.24;100337.91;1708710;83;21047;-68
2022/07/02 06:47:21;;;;;;;3.85;3.55;;;;;;;22.34;49.05;100340.48;1683009;84;21104;-68
2022/07/02 06:49:48;;;;;;;10.93;3.40;;;;;;;22.35;48.64;100337.19;1679664;84;21179;-69
2022/07/02 06:52:16;;;;;;;9.60;3.20;;;;;;;22.34;48.47;100343.23;1703161;83;21011;-70
2022/07/02 06:54:43;;;;;;;8.33;3.22;;;;;;;22.36;48.49;100345.63;1688022;85;20950;-68
2022/07/02 06:57:10;;;;;;;4.03;2.95;;;;;;;22.40;47.71;100343.33;1673674;85;21083;-68
2022/07/02 06:59:36;;;;;;;7.45;3.27;;;;;;;22.46;47.37;100336.60;1686886;84;21526;-68
2022/07/02 07:02:04;;;;;;;3.55;1.95;;;;;;;22.57;46.30;100341.27;1710868;83;22280;-68
2022/07/02 07:04:34;;;;;;;5.55;3.05;;;;;;;22.65;46.13;100346.55;1713707;82;20940;-68
2022/07/02 07:07:03;;;;;;;4.92;2.70;;;;;;;22.71;46.19;100347.52;1646441;87;21043;-67
2022/07/02 07:09:30;;;;;;;5.85;3.02;;;;;;;22.76;46.35;100350.13;1660378;86;21565;-67
2022/07/02 07:11:57;;;;;;;5.15;2.80;;;;;;;22.83;46.72;100349.09;1675295;85;21091;-68
2022/07/02 07:14:23;;;;;;;5.20;2.75;;;;;;;22.90;46.66;100352.20;1646493;87;21166;-67
2022/07/02 07:16:51;;;;;;;7.12;3.17;;;;;;;22.97;46.53;100357.26;1673553;84;20994;-69
2022/07/02 07:19:17;;;;;;;3.90;2.87;;;;;;;23.03;46.04;100359.53;1718205;83;21011;-67
2022/07/02 07:24:20;;;;;;;9.55;3.02;;;;;;;23.18;45.19;100355.55;1668126;85;20955;-69
2022/07/02 07:26:47;;;;;;;2.35;2.12;;;;;;;23.24;45.02;100354.29;1680566;84;21230;-69
2022/07/02 07:29:13;;;;;;;4.35;2.52;;;;;;;23.29;45.00;100365.69;1718151;82;20968;-68
2022/07/02 07:31:41;;;;;;;2.95;2.72;;;;;;;23.33;45.19;100357.87;1710213;83;21077;-68
2022/07/02 07:34:08;;;;;;;13.53;2.47;;;;;;;23.38;45.18;100359.09;1703390;84;21505;-67
2022/07/02 07:36:35;;;;;;;6.83;2.60;;;;;;;23.44;45.22;100359.23;1703471;84;21561;-66
2022/07/02 07:39:03;;;;;;;10.58;2.72;;;;;;;23.50;44.75;100357.72;1703705;83;21029;-68
2022/07/02 07:41:30;;;;;;;4.37;2.77;;;;;;;23.53;44.77;100363.37;1688616;82;21087;-66
2022/07/02 07:43:59;;;;;;;18.45;3.10;;;;;;;23.61;43.99;100361.20;1672973;85;21049;-68
2022/07/02 07:46:26;;;;;;;9.08;2.80;;;;;;;23.68;43.07;100354.68;1689837;84;21041;-67
2022/07/02 07:48:53;;;;;;;4.70;2.10;;;;;;;23.72;42.98;100350.72;1710192;83;21500;-68
2022/07/02 07:51:19;;;;;;;5.25;3.30;;;;;;;23.78;43.33;100354.38;1710240;83;21708;-66
2022/07/02 07:53:46;;;;;;;3.75;2.05;;;;;;;23.83;43.09;100354.22;1710559;83;21013;-68
2022/07/02 07:56:17;;;;;;;4.53;1.90;;;;;;;23.90;43.00;100352.34;1694031;83;20975;-66
2022/07/02 07:58:42;;;;;;;4.33;2.37;;;;;;;24.00;42.92;100360.84;1710018;83;21162;-68
2022/07/02 08:01:10;;;;;;;2.67;2.20;;;;;;;24.06;43.26;100359.55;1710300;83;21581;-69
2022/07/02 08:03:37;;;;;;;2.98;2.47;;;;;;;24.13;43.55;100359.86;1710517;83;21232;-68
2022/07/02 08:06:05;;;;;;;3.35;2.65;;;;;;;24.19;43.83;100362.17;1710341;83;20983;-68
2022/07/02 08:08:32;;;;;;;9.38;3.05;;;;;;;24.26;43.62;100357.56;1710317;83;21034;-67
2022/07/02 08:10:59;;;;;;;11.73;2.90;;;;;;;24.33;43.79;100366.12;1710278;83;21599;-68
2022/07/02 08:13:25;;;;;;;7.83;2.77;;;;;;;24.39;43.52;100362.08;1709797;83;21505;-68
2022/07/02 08:15:53;;;;;;;2.47;2.27;;;;;;;24.48;43.79;100367.55;1710403;83;21271;-69
2022/07/02 08:18:21;;;;;;;5.87;3.12;;;;;;;24.57;43.23;100362.28;1710395;83;22273;-69
2022/07/02 08:20:47;;;;;;;4.80;2.27;;;;;;;24.63;43.02;100357.42;1710756;83;20971;-68
2022/07/02 08:23:14;;;;;;;5.28;2.15;;;;;;;24.67;42.41;100374.32;1710412;83;21095;-72
2022/07/02 08:25:41;;;;;;;7.22;2.92;;;;;;;24.66;42.42;100375.45;1710425;83;21524;-69
2022/07/02 08:28:10;;;;;;;3.50;2.47;;;;;;;24.69;42.65;100380.88;1710680;83;20940;-68
2022/07/02 08:30:36;;;;;;;8.08;3.87;;;;;;;24.73;42.75;100370.83;1710520;83;21035;-67
2022/07/02 08:33:03;;;;;;;5.80;2.65;;;;;;;24.75;42.61;100377.61;1694083;83;20912;-68
2022/07/02 08:35:30;;;;;;;6.12;2.15;;;;;;;24.75;42.62;100375.42;1710544;83;21567;-68
2022/07/02 08:37:58;;;;;;;9.50;2.70;;;;;;;24.80;43.01;100382.13;1710337;83;21540;-68
2022/07/02 08:40:26;;;;;;;3.75;2.40;;;;;;;24.86;42.73;100383.58;1710396;83;21290;-68
2022/07/02 08:42:53;;;;;;;8.60;2.50;;;;;;;24.93;42.49;100377.61;1710667;83;20952;-68
2022/07/02 08:45:23;;;;;;;10.10;2.45;;;;;;;24.99;41.93;100379.03;1710483;83;21067;-69
2022/07/02 08:47:53;;;;;;;8.18;2.80;;;;;;;25.04;41.79;100376.91;1688275;84;21065;-69
2022/07/02 08:50:20;;;;;;;11.40;1.85;;;;;;;25.03;40.59;100375.88;1670253;85;21071;-67
2022/07/02 08:52:51;;;;;;;5.85;2.40;;;;;;;24.99;41.17;100374.90;1660300;86;21223;-68
2022/07/02 08:55:19;;;;;;;5.08;2.52;;;;;;;25.01;41.57;100377.58;1682139;82;20944;-67
2022/07/02 08:57:47;;;;;;;6.55;2.98;;;;;;;25.08;41.74;100371.57;1675233;85;21097;-67
2022/07/02 09:00:16;;;;;;;10.10;4.22;;;;;;;25.18;42.10;100373.93;1681588;84;21057;-67
2022/07/02 09:02:44;;;;;;;3.33;2.67;;;;;;;25.27;41.30;100376.67;1718373;82;21009;-68
2022/07/02 09:05:14;;;;;;;5.15;2.35;;;;;;;25.28;40.45;100372.19;1718415;83;21181;-68
2022/07/02 09:07:41;;;;;;;3.30;2.47;;;;;;;25.30;40.42;100378.19;1702570;83;21093;-68
2022/07/02 09:10:09;;;;;;;4.00;2.20;;;;;;;25.34;40.69;100372.81;1677696;85;21065;-68
2022/07/02 09:12:36;;;;;;;10.18;2.60;;;;;;;25.35;40.31;100368.92;1698683;83;21051;-66
2022/07/02 09:15:04;;;;;;;11.15;3.30;;;;;;;25.37;40.65;100368.04;1687587;84;21041;-68
2022/07/02 09:17:31;;;;;;;5.03;2.02;;;;;;;25.45;39.97;100375.44;1690191;83;21785;-69
2022/07/02 09:19:59;;;;;;;5.22;2.40;;;;;;;25.46;39.15;100377.88;1699441;82;21179;-68
2022/07/02 09:22:34;;;;;;;6.97;4.72;;;;;;;25.46;39.05;100375.69;1647127;85;21036;-69
2022/07/02 09:25:17;;;;;;;3.35;2.15;;;;;;;25.48;39.09;100385.78;1687051;85;21659;-68
2022/07/02 09:27:45;;;;;;;3.05;1.72;;;;;;;25.46;38.52;100381.20;1703823;84;21501;-69
2022/07/02 09:30:14;;;;;;;2.77;2.25;;;;;;;25.48;38.89;100387.16;1687062;84;21882;-69
2022/07/02 09:32:46;;;;;;;9.43;2.10;;;;;;;25.50;38.21;100382.14;1677413;84;21041;-68
2022/07/02 09:35:21;;;;;;;4.17;2.40;;;;;;;25.51;38.62;100386.52;1711405;82;21352;-72
2022/07/02 09:37:51;;;;;;;7.87;2.72;;;;;;;25.60;38.83;100381.80;1663184;85;21620;-67
2022/07/02 09:40:20;;;;;;;2.58;2.37;;;;;;;25.63;37.96;100382.49;1686606;84;21104;-69
2022/07/02 09:42:48;;;;;;;5.30;2.45;;;;;;;25.66;37.89;100385.16;1685679;85;21254;-70
2022/07/02 09:45:15;;;;;;;6.35;2.40;;;;;;;25.59;37.77;100390.63;1703452;83;20984;-67
2022/07/02 09:47:48;;;;;;;2.67;1.80;;;;;;;25.64;38.17;100382.73;1673625;84;20996;-69
2022/07/02 09:50:14;;;;;;;6.17;2.50;;;;;;;25.73;38.32;100382.11;1681339;85;20953;-67
2022/07/02 09:52:57;;;;;;;2.80;2.45;;;;;;;25.87;38.21;100381.84;1689333;85;21131;-69
2022/07/02 09:55:30;;;;;;;4.92;2.60;;;;;;;25.95;38.47;100379.02;1704146;83;21311;-67
2022/07/02 09:57:59;;;;;;;3.25;2.75;;;;;;;26.08;38.46;100378.55;1703581;84;21020;-66
2022/07/02 10:00:29;;;;;;;6.03;2.33;;;;;;;26.16;37.18;100387.88;1703083;83;21889;-66
2022/07/02 10:02:57;;;;;;;2.25;2.05;;;;;;;25.99;36.41;100378.58;1703477;83;21008;-67
2022/07/02 10:05:33;;;;;;;9.35;2.87;;;;;;;26.01;36.99;100381.02;1684688;84;21202;-66
2022/07/02 10:08:02;;;;;;;5.20;2.77;;;;;;;26.08;36.26;100381.87;1699768;82;21256;-69
2022/07/02 10:10:38;;;;;;;2.52;2.40;;;;;;;26.16;35.97;100386.50;1708415;83;21053;-68
2022/07/02 10:13:12;;;;;;;4.90;2.27;;;;;;;26.08;35.26;100373.59;1673728;85;21021;-67
2022/07/02 10:15:54;;;;;;;4.00;1.90;;;;;;;26.05;35.73;100378.63;1703853;83;20992;-68
2022/07/02 10:18:23;;;;;;;6.40;2.20;;;;;;;26.07;36.50;100376.11;1701715;82;26738;-67
2022/07/02 10:20:50;;;;;;;4.67;2.77;;;;;;;26.12;36.95;100378.67;1672093;84;21174;-67
2022/07/02 10:23:17;;;;;;;3.90;2.27;;;;;;;26.25;37.69;100379.80;1701616;84;21516;-68
2022/07/02 10:25:44;;;;;;;3.50;2.27;;;;;;;26.41;37.26;100374.47;1687249;84;20981;-65
2022/07/02 10:28:12;;;;;;;2.20;2.00;;;;;;;26.51;36.24;100371.29;1708837;82;37747;-67
2022/07/02 10:30:40;;;;;;;2.42;2.10;;;;;;;26.64;36.19;100372.13;1707689;82;21059;-68
2022/07/02 10:33:28;;;;;;;2.35;2.20;;;;;;;26.75;35.57;100372.75;1706978;82;21508;-67
2022/07/02 10:35:58;;;;;;;4.03;2.45;;;;;;;26.85;33.91;100371.50;1673593;85;21029;-68
2022/07/02 10:38:32;;;;;;;3.05;2.35;;;;;;;26.94;33.52;100382.47;1655717;85;21027;-67
2022/07/02 10:41:00;;;;;;;3.02;2.27;;;;;;;26.91;33.73;100379.81;1684753;84;21009;-68
2022/07/02 10:43:28;;;;;;;4.75;2.55;;;;;;;26.91;34.24;100371.52;1703921;84;21090;-69
2022/07/02 10:46:08;;;;;;;6.97;2.00;;;;;;;26.92;34.71;100378.66;1703536;83;21761;-68
2022/07/02 10:48:48;;;;;;;5.40;2.10;;;;;;;27.01;34.31;100366.94;1701862;83;20962;-69
2022/07/02 10:51:28;;;;;;;2.85;2.40;;;;;;;27.06;34.55;100376.95;1680581;84;21049;-70
2022/07/02 10:54:00;;;;;;;2.87;2.67;;;;;;;27.09;34.59;100371.58;1670985;85;20960;-69
2022/07/02 10:56:28;;;;;;;3.30;2.58;;;;;;;27.04;34.33;100373.17;1703256;83;21064;-70
2022/07/02 10:58:55;;;;;;;3.83;2.77;;;;;;;27.09;34.10;100366.63;1702003;84;21978;-71
2022/07/02 11:01:23;;;;;;;5.17;2.62;;;;;;;27.16;33.24;100370.98;1688565;84;21091;-69
2022/07/02 11:03:59;;;;;;;4.72;2.77;;;;;;;27.19;33.20;100370.31;1684967;85;21017;-70
2022/07/02 11:06:30;;;;;;;10.55;2.62;;;;;;;27.23;32.53;100371.23;1702766;83;21060;-68
2022/07/02 11:09:05;;;;;;;2.00;1.90;;;;;;;27.25;32.64;100366.97;1662628;84;20958;-68
2022/07/02 11:11:40;;;;;;;6.37;1.82;;;;;;;27.30;31.48;100360.41;1692549;84;21217;-69
2022/07/02 11:14:10;;;;;;;6.60;1.98;;;;;;;27.29;32.17;100360.16;1688446;84;21014;-69
2022/07/02 11:16:49;;;;;;;3.42;1.90;;;;;;;27.32;31.96;100363.64;1704652;82;21086;-70
2022/07/02 11:19:24;;;;;;;3.50;1.67;;;;;;;27.45;32.39;100363.86;1687983;84;21121;-67
2022/07/02 11:21:54;;;;;;;2.12;2.02;;;;;;;27.44;31.02;100354.52;1703476;84;21075;-68
2022/07/02 11:24:24;;;;;;;5.22;2.15;;;;;;;27.46;31.55;100341.98;1703974;82;21156;-68
2022/07/02 11:26:52;;;;;;;7.45;3.45;;;;;;;27.53;30.22;100338.08;1686601;85;21526;-75
2022/07/02 11:29:18;;;;;;;2.58;2.37;;;;;;;27.58;30.70;100343.37;1703628;82;21115;-71
2022/07/02 11:31:52;;;;;;;3.30;2.33;;;;;;;27.62;30.04;100344.88;1684270;83;21022;-75
2022/07/02 11:34:29;;;;;;;3.02;1.27;;;;;;;27.53;30.24;100335.31;1686569;84;21057;-74
2022/07/02 11:36:56;;;;;;;8.78;2.55;;;;;;;27.56;31.33;100330.49;1703748;84;21112;-70